sensor_id;sensor_type;location;lat;lon;timestamp;temperature;humidity
7562;DHT22;3822;48.784;9.174;2023-07-22T00:02:25;19.50;81.60
7562;DHT22;3822;48.784;9.174;2023-07-22T00:04:55;19.50;81.70
7562;DHT22;3822;48.784;9.174;2023-07-22T00:07:21;19.50;81.80
7562;DHT22;3822;48.784;9.174;2023-07-22T00:09:48;19.50;82.00
7562;DHT22;3822;48.784;9.174;2023-07-22T00:12:15;19.50;82.00
7562;DHT22;3822;48.784;9.174;2023-07-22T00:14:42;19.50;82.00
7562;DHT22;3822;48.784;9.174;2023-07-22T00:17:08;19.50;82.00
7562;DHT22;3822;48.784;9.174;2023-07-22T00:19:37;19.50;82.00
7562;DHT22;3822;48.784;9.174;2023-07-22T00:22:03;19.50;82.10
7562;DHT22;3822;48.784;9.174;2023-07-22T00:24:30;19.50;82.00
7562;DHT22;3822;48.784;9.174;2023-07-22T00:26:56;19.50;81.90
7562;DHT22;3822;48.784;9.174;2023-07-22T00:29:22;19.50;82.00
7562;DHT22;3822;48.784;9.174;2023-07-22T00:31:49;19.60;82.00
7562;DHT22;3822;48.784;9.174;2023-07-22T00:34:15;19.50;81.90
7562;DHT22;3822;48.784;9.174;2023-07-22T00:36:42;19.50;81.90
7562;DHT22;3822;48.784;9.174;2023-07-22T00:39:09;19.60;82.10
7562;DHT22;3822;48.784;9.174;2023-07-22T00:41:37;19.50;82.00
7562;DHT22;3822;48.784;9.174;2023-07-22T00:44:03;19.50;82.10
7562;DHT22;3822;48.784;9.174;2023-07-22T00:46:30;19.50;82.10
7562;DHT22;3822;48.784;9.174;2023-07-22T00:48:56;19.50;82.20
7562;DHT22;3822;48.784;9.174;2023-07-22T00:51:22;19.40;82.20
7562;DHT22;3822;48.784;9.174;2023-07-22T00:53:48;19.40;82.20
7562;DHT22;3822;48.784;9.174;2023-07-22T00:56:17;19.40;82.40
7562;DHT22;3822;48.784;9.174;2023-07-22T00:58:45;19.40;82.50
7562;DHT22;3822;48.784;9.174;2023-07-22T01:01:12;19.40;82.70
7562;DHT22;3822;48.784;9.174;2023-07-22T01:03:38;19.40;82.80
7562;DHT22;3822;48.784;9.174;2023-07-22T01:06:04;19.30;82.90
7562;DHT22;3822;48.784;9.174;2023-07-22T01:08:31;19.30;83.00
7562;DHT22;3822;48.784;9.174;2023-07-22T01:10:57;19.30;83.10
7562;DHT22;3822;48.784;9.174;2023-07-22T01:13:24;19.30;83.30
7562;DHT22;3822;48.784;9.174;2023-07-22T01:15:51;19.30;83.50
7562;DHT22;3822;48.784;9.174;2023-07-22T01:18:19;19.30;83.70
7562;DHT22;3822;48.784;9.174;2023-07-22T01:20:50;19.20;83.70
7562;DHT22;3822;48.784;9.174;2023-07-22T01:23:17;19.20;83.90
7562;DHT22;3822;48.784;9.174;2023-07-22T01:25:43;19.20;84.10
7562;DHT22;3822;48.784;9.174;2023-07-22T01:28:10;19.20;84.20
7562;DHT22;3822;48.784;9.174;2023-07-22T01:30:36;19.20;84.20
7562;DHT22;3822;48.784;9.174;2023-07-22T01:33:03;19.20;84.40
7562;DHT22;3822;48.784;9.174;2023-07-22T01:35:29;19.20;84.50
7562;DHT22;3822;48.784;9.174;2023-07-22T01:37:55;19.20;84.60
7562;DHT22;3822;48.784;9.174;2023-07-22T01:40:21;19.20;84.80
7562;DHT22;3822;48.784;9.174;2023-07-22T01:42:50;19.20;85.00
7562;DHT22;3822;48.784;9.174;2023-07-22T01:45:16;19.20;85.10
7562;DHT22;3822;48.784;9.174;2023-07-22T01:47:45;19.20;85.20
7562;DHT22;3822;48.784;9.174;2023-07-22T01:50:11;19.20;85.30
7562;DHT22;3822;48.784;9.174;2023-07-22T01:52:40;19.20;85.30
7562;DHT22;3822;48.784;9.174;2023-07-22T01:55:06;19.20;85.40
7562;DHT22;3822;48.784;9.174;2023-07-22T01:57:36;19.10;85.30
7562;DHT22;3822;48.784;9.174;2023-07-22T02:00:03;19.10;85.30
7562;DHT22;3822;48.784;9.174;2023-07-22T02:02:31;19.10;85.40
7562;DHT22;3822;48.784;9.174;2023-07-22T02:04:57;19.10;85.50
7562;DHT22;3822;48.784;9.174;2023-07-22T02:07:23;19.10;85.50
7562;DHT22;3822;48.784;9.174;2023-07-22T02:09:52;19.10;85.60
7562;DHT22;3822;48.784;9.174;2023-07-22T02:12:18;19.10;85.60
7562;DHT22;3822;48.784;9.174;2023-07-22T02:14:45;19.00;85.60
7562;DHT22;3822;48.784;9.174;2023-07-22T02:17:13;19.00;85.60
7562;DHT22;3822;48.784;9.174;2023-07-22T02:19:39;19.00;85.70
7562;DHT22;3822;48.784;9.174;2023-07-22T02:22:06;19.10;85.90
7562;DHT22;3822;48.784;9.174;2023-07-22T02:24:32;19.00;85.70
7562;DHT22;3822;48.784;9.174;2023-07-22T02:26:59;19.00;85.70
7562;DHT22;3822;48.784;9.174;2023-07-22T02:29:28;18.90;85.90
7562;DHT22;3822;48.784;9.174;2023-07-22T02:31:56;18.90;85.80
7562;DHT22;3822;48.784;9.174;2023-07-22T02:34:23;18.90;85.80
7562;DHT22;3822;48.784;9.174;2023-07-22T02:36:49;18.90;85.80
7562;DHT22;3822;48.784;9.174;2023-07-22T02:39:20;18.90;85.80
7562;DHT22;3822;48.784;9.174;2023-07-22T02:41:47;18.90;85.80
7562;DHT22;3822;48.784;9.174;2023-07-22T02:44:13;18.80;85.80
7562;DHT22;3822;48.784;9.174;2023-07-22T02:46:39;18.80;85.80
7562;DHT22;3822;48.784;9.174;2023-07-22T02:49:07;18.80;86.00
7562;DHT22;3822;48.784;9.174;2023-07-22T02:51:33;18.80;86.00
7562;DHT22;3822;48.784;9.174;2023-07-22T02:53:59;18.70;85.90
7562;DHT22;3822;48.784;9.174;2023-07-22T02:56:26;18.70;86.00
7562;DHT22;3822;48.784;9.174;2023-07-22T02:58:52;18.70;86.20
7562;DHT22;3822;48.784;9.174;2023-07-22T03:01:18;18.70;86.30
7562;DHT22;3822;48.784;9.174;2023-07-22T03:03:45;18.70;86.30
7562;DHT22;3822;48.784;9.174;2023-07-22T03:06:11;18.60;86.30
7562;DHT22;3822;48.784;9.174;2023-07-22T03:08:37;18.60;86.40
7562;DHT22;3822;48.784;9.174;2023-07-22T03:11:03;18.60;86.50
7562;DHT22;3822;48.784;9.174;2023-07-22T03:13:30;18.60;86.60
7562;DHT22;3822;48.784;9.174;2023-07-22T03:15:57;18.60;86.60
7562;DHT22;3822;48.784;9.174;2023-07-22T03:18:24;18.60;86.70
7562;DHT22;3822;48.784;9.174;2023-07-22T03:20:50;18.70;86.90
7562;DHT22;3822;48.784;9.174;2023-07-22T03:23:17;18.60;86.80
7562;DHT22;3822;48.784;9.174;2023-07-22T03:25:43;18.70;86.90
7562;DHT22;3822;48.784;9.174;2023-07-22T03:28:10;18.70;87.10
7562;DHT22;3822;48.784;9.174;2023-07-22T03:30:37;18.70;87.20
7562;DHT22;3822;48.784;9.174;2023-07-22T03:33:04;18.60;87.00
7562;DHT22;3822;48.784;9.174;2023-07-22T03:35:32;18.60;86.90
7562;DHT22;3822;48.784;9.174;2023-07-22T03:37:59;18.60;87.00
7562;DHT22;3822;48.784;9.174;2023-07-22T03:40:25;18.60;86.80
7562;DHT22;3822;48.784;9.174;2023-07-22T03:42:57;18.50;86.60
7562;DHT22;3822;48.784;9.174;2023-07-22T03:45:23;18.50;86.60
7562;DHT22;3822;48.784;9.174;2023-07-22T03:47:51;18.50;86.70
7562;DHT22;3822;48.784;9.174;2023-07-22T03:50:27;18.40;86.60
7562;DHT22;3822;48.784;9.174;2023-07-22T03:52:58;18.40;86.70
7562;DHT22;3822;48.784;9.174;2023-07-22T03:55:24;18.40;86.60
7562;DHT22;3822;48.784;9.174;2023-07-22T03:57:51;18.40;86.60
7562;DHT22;3822;48.784;9.174;2023-07-22T04:00:18;18.40;86.60
7562;DHT22;3822;48.784;9.174;2023-07-22T04:02:45;18.40;86.50
7562;DHT22;3822;48.784;9.174;2023-07-22T04:05:12;18.40;86.50
7562;DHT22;3822;48.784;9.174;2023-07-22T04:07:41;18.40;86.60
7562;DHT22;3822;48.784;9.174;2023-07-22T04:10:07;18.40;86.50
7562;DHT22;3822;48.784;9.174;2023-07-22T04:12:33;18.40;87.30
7562;DHT22;3822;48.784;9.174;2023-07-22T04:14:59;18.40;86.90
7562;DHT22;3822;48.784;9.174;2023-07-22T04:17:26;18.40;86.80
7562;DHT22;3822;48.784;9.174;2023-07-22T04:19:52;18.40;86.80
7562;DHT22;3822;48.784;9.174;2023-07-22T04:22:19;18.40;86.80
7562;DHT22;3822;48.784;9.174;2023-07-22T04:24:46;18.40;86.90
7562;DHT22;3822;48.784;9.174;2023-07-22T04:27:14;18.40;86.80
7562;DHT22;3822;48.784;9.174;2023-07-22T04:29:41;18.40;86.70
7562;DHT22;3822;48.784;9.174;2023-07-22T04:32:08;18.30;86.50
7562;DHT22;3822;48.784;9.174;2023-07-22T04:34:34;18.30;86.80
7562;DHT22;3822;48.784;9.174;2023-07-22T04:37:00;18.30;86.60
7562;DHT22;3822;48.784;9.174;2023-07-22T04:39:27;18.30;86.50
7562;DHT22;3822;48.784;9.174;2023-07-22T04:41:53;18.30;86.70
7562;DHT22;3822;48.784;9.174;2023-07-22T04:44:20;18.30;86.90
7562;DHT22;3822;48.784;9.174;2023-07-22T04:46:46;18.30;87.20
7562;DHT22;3822;48.784;9.174;2023-07-22T04:49:13;18.30;87.80
7562;DHT22;3822;48.784;9.174;2023-07-22T04:51:44;18.30;88.50
7562;DHT22;3822;48.784;9.174;2023-07-22T04:54:11;18.30;88.90
7562;DHT22;3822;48.784;9.174;2023-07-22T04:56:38;18.30;88.90
7562;DHT22;3822;48.784;9.174;2023-07-22T04:59:04;18.20;89.00
7562;DHT22;3822;48.784;9.174;2023-07-22T05:01:31;18.20;89.30
7562;DHT22;3822;48.784;9.174;2023-07-22T05:03:57;18.20;89.30
7562;DHT22;3822;48.784;9.174;2023-07-22T05:06:23;18.20;89.60
7562;DHT22;3822;48.784;9.174;2023-07-22T05:08:50;18.20;89.90
7562;DHT22;3822;48.784;9.174;2023-07-22T05:11:17;18.20;89.70
7562;DHT22;3822;48.784;9.174;2023-07-22T05:13:44;18.30;89.80
7562;DHT22;3822;48.784;9.174;2023-07-22T05:16:10;18.30;90.00
7562;DHT22;3822;48.784;9.174;2023-07-22T05:18:36;18.20;90.40
7562;DHT22;3822;48.784;9.174;2023-07-22T05:21:04;18.30;90.10
7562;DHT22;3822;48.784;9.174;2023-07-22T05:23:30;18.30;90.20
7562;DHT22;3822;48.784;9.174;2023-07-22T05:25:57;18.30;90.20
7562;DHT22;3822;48.784;9.174;2023-07-22T05:28:23;18.30;90.20
7562;DHT22;3822;48.784;9.174;2023-07-22T05:30:49;18.40;90.20
7562;DHT22;3822;48.784;9.174;2023-07-22T05:33:15;18.40;90.20
7562;DHT22;3822;48.784;9.174;2023-07-22T05:35:42;18.40;90.20
7562;DHT22;3822;48.784;9.174;2023-07-22T05:38:08;18.40;90.10
7562;DHT22;3822;48.784;9.174;2023-07-22T05:40:36;18.50;90.10
7562;DHT22;3822;48.784;9.174;2023-07-22T05:43:03;18.50;90.00
7562;DHT22;3822;48.784;9.174;2023-07-22T05:45:29;18.60;90.10
7562;DHT22;3822;48.784;9.174;2023-07-22T05:47:55;18.60;90.10
7562;DHT22;3822;48.784;9.174;2023-07-22T05:50:22;18.70;90.20
7562;DHT22;3822;48.784;9.174;2023-07-22T05:52:48;18.80;90.30
7562;DHT22;3822;48.784;9.174;2023-07-22T05:55:15;18.80;90.20
7562;DHT22;3822;48.784;9.174;2023-07-22T05:57:43;18.90;90.10
7562;DHT22;3822;48.784;9.174;2023-07-22T06:00:09;18.90;90.00
7562;DHT22;3822;48.784;9.174;2023-07-22T06:02:38;18.80;90.00
7562;DHT22;3822;48.784;9.174;2023-07-22T06:05:05;18.90;90.00
7562;DHT22;3822;48.784;9.174;2023-07-22T06:07:31;19.00;90.00
7562;DHT22;3822;48.784;9.174;2023-07-22T06:09:57;19.10;90.00
7562;DHT22;3822;48.784;9.174;2023-07-22T06:12:26;19.10;89.90
7562;DHT22;3822;48.784;9.174;2023-07-22T06:14:52;19.10;89.90
7562;DHT22;3822;48.784;9.174;2023-07-22T06:17:19;19.20;89.90
7562;DHT22;3822;48.784;9.174;2023-07-22T06:19:46;18.30;89.50
7562;DHT22;3822;48.784;9.174;2023-07-22T06:22:15;19.40;89.80
7562;DHT22;3822;48.784;9.174;2023-07-22T06:24:41;19.40;89.60
7562;DHT22;3822;48.784;9.174;2023-07-22T06:27:10;19.50;89.50
7562;DHT22;3822;48.784;9.174;2023-07-22T06:29:36;19.50;89.30
7562;DHT22;3822;48.784;9.174;2023-07-22T06:32:02;19.50;89.10
7562;DHT22;3822;48.784;9.174;2023-07-22T06:34:31;19.50;89.00
7562;DHT22;3822;48.784;9.174;2023-07-22T06:36:58;19.60;89.00
7562;DHT22;3822;48.784;9.174;2023-07-22T06:39:26;19.60;88.90
7562;DHT22;3822;48.784;9.174;2023-07-22T06:41:52;19.70;89.00
7562;DHT22;3822;48.784;9.174;2023-07-22T06:44:19;19.80;88.80
7562;DHT22;3822;48.784;9.174;2023-07-22T06:46:45;19.90;88.50
7562;DHT22;3822;48.784;9.174;2023-07-22T06:49:13;19.90;88.10
7562;DHT22;3822;48.784;9.174;2023-07-22T06:51:43;20.00;88.00
7562;DHT22;3822;48.784;9.174;2023-07-22T06:54:11;20.00;87.80
7562;DHT22;3822;48.784;9.174;2023-07-22T06:56:38;20.10;87.80
7562;DHT22;3822;48.784;9.174;2023-07-22T06:59:04;20.20;87.70
7562;DHT22;3822;48.784;9.174;2023-07-22T07:01:31;20.20;87.60
7562;DHT22;3822;48.784;9.174;2023-07-22T07:04:02;20.30;87.50
7562;DHT22;3822;48.784;9.174;2023-07-22T07:06:28;20.40;87.20
7562;DHT22;3822;48.784;9.174;2023-07-22T07:08:55;20.50;86.90
7562;DHT22;3822;48.784;9.174;2023-07-22T07:11:21;20.60;86.40
7562;DHT22;3822;48.784;9.174;2023-07-22T07:13:48;20.60;86.20
7562;DHT22;3822;48.784;9.174;2023-07-22T07:16:21;20.70;86.00
7562;DHT22;3822;48.784;9.174;2023-07-22T07:18:51;20.80;86.00
7562;DHT22;3822;48.784;9.174;2023-07-22T07:21:18;20.90;86.20
7562;DHT22;3822;48.784;9.174;2023-07-22T07:23:47;21.00;85.90
7562;DHT22;3822;48.784;9.174;2023-07-22T07:26:14;21.00;85.30
7562;DHT22;3822;48.784;9.174;2023-07-22T07:28:40;21.10;85.00
7562;DHT22;3822;48.784;9.174;2023-07-22T07:31:09;21.20;85.00
7562;DHT22;3822;48.784;9.174;2023-07-22T07:33:36;21.20;84.50
7562;DHT22;3822;48.784;9.174;2023-07-22T07:36:02;21.30;84.10
7562;DHT22;3822;48.784;9.174;2023-07-22T07:38:29;21.40;84.30
7562;DHT22;3822;48.784;9.174;2023-07-22T07:40:58;21.50;84.30
7562;DHT22;3822;48.784;9.174;2023-07-22T07:43:26;21.60;84.10
7562;DHT22;3822;48.784;9.174;2023-07-22T07:48:40;21.80;83.20
7562;DHT22;3822;48.784;9.174;2023-07-22T07:51:06;21.80;83.10
7562;DHT22;3822;48.784;9.174;2023-07-22T07:53:32;22.00;83.30
7562;DHT22;3822;48.784;9.174;2023-07-22T07:56:01;22.00;83.00
7562;DHT22;3822;48.784;9.174;2023-07-22T07:58:29;22.10;82.20
7562;DHT22;3822;48.784;9.174;2023-07-22T08:00:56;22.20;82.00
7562;DHT22;3822;48.784;9.174;2023-07-22T08:03:24;22.20;82.00
7562;DHT22;3822;48.784;9.174;2023-07-22T08:05:50;22.40;81.00
7562;DHT22;3822;48.784;9.174;2023-07-22T08:08:17;22.50;79.50
7562;DHT22;3822;48.784;9.174;2023-07-22T08:10:43;22.50;76.40
7562;DHT22;3822;48.784;9.174;2023-07-22T08:13:12;22.60;75.70
7562;DHT22;3822;48.784;9.174;2023-07-22T08:15:38;22.60;74.70
7562;DHT22;3822;48.784;9.174;2023-07-22T08:18:05;22.70;73.90
7562;DHT22;3822;48.784;9.174;2023-07-22T08:20:32;22.80;73.00
7562;DHT22;3822;48.784;9.174;2023-07-22T08:22:58;22.90;72.90
7562;DHT22;3822;48.784;9.174;2023-07-22T08:25:24;23.00;71.80
7562;DHT22;3822;48.784;9.174;2023-07-22T08:27:50;23.10;71.00
7562;DHT22;3822;48.784;9.174;2023-07-22T08:30:17;23.10;70.50
7562;DHT22;3822;48.784;9.174;2023-07-22T08:32:45;23.20;69.80
7562;DHT22;3822;48.784;9.174;2023-07-22T08:35:14;23.30;70.10
7562;DHT22;3822;48.784;9.174;2023-07-22T08:37:43;23.30;68.10
7562;DHT22;3822;48.784;9.174;2023-07-22T08:40:10;23.40;67.90
7562;DHT22;3822;48.784;9.174;2023-07-22T08:42:37;23.50;66.60
7562;DHT22;3822;48.784;9.174;2023-07-22T08:45:04;23.60;66.70
7562;DHT22;3822;48.784;9.174;2023-07-22T08:47:32;23.60;65.30
7562;DHT22;3822;48.784;9.174;2023-07-22T08:50:00;23.70;63.60
7562;DHT22;3822;48.784;9.174;2023-07-22T08:52:27;23.70;61.90
7562;DHT22;3822;48.784;9.174;2023-07-22T08:54:54;23.80;60.40
7562;DHT22;3822;48.784;9.174;2023-07-22T08:57:21;23.90;58.60
7562;DHT22;3822;48.784;9.174;2023-07-22T08:59:47;23.90;58.00
7562;DHT22;3822;48.784;9.174;2023-07-22T09:02:14;23.90;57.70
7562;DHT22;3822;48.784;9.174;2023-07-22T09:04:40;24.00;57.80
7562;DHT22;3822;48.784;9.174;2023-07-22T09:07:08;24.00;57.00
7562;DHT22;3822;48.784;9.174;2023-07-22T09:09:34;24.00;55.50
7562;DHT22;3822;48.784;9.174;2023-07-22T09:12:02;24.00;55.40
7562;DHT22;3822;48.784;9.174;2023-07-22T09:14:28;24.00;55.40
7562;DHT22;3822;48.784;9.174;2023-07-22T09:16:57;24.10;55.70
7562;DHT22;3822;48.784;9.174;2023-07-22T09:19:23;24.10;55.30
7562;DHT22;3822;48.784;9.174;2023-07-22T09:21:50;24.10;54.30
7562;DHT22;3822;48.784;9.174;2023-07-22T09:24:20;24.10;53.80
7562;DHT22;3822;48.784;9.174;2023-07-22T09:26:47;24.10;54.00
7562;DHT22;3822;48.784;9.174;2023-07-22T09:29:14;24.10;54.10
7562;DHT22;3822;48.784;9.174;2023-07-22T09:31:51;24.10;54.30
7562;DHT22;3822;48.784;9.174;2023-07-22T09:34:18;24.10;54.10
7562;DHT22;3822;48.784;9.174;2023-07-22T09:36:52;24.10;54.10
7562;DHT22;3822;48.784;9.174;2023-07-22T09:39:22;24.10;54.50
7562;DHT22;3822;48.784;9.174;2023-07-22T09:41:51;24.10;55.30
7562;DHT22;3822;48.784;9.174;2023-07-22T09:44:21;24.20;54.70
7562;DHT22;3822;48.784;9.174;2023-07-22T09:46:54;24.20;54.10
7562;DHT22;3822;48.784;9.174;2023-07-22T09:49:21;24.20;54.40
7562;DHT22;3822;48.784;9.174;2023-07-22T09:51:47;24.20;54.40
7562;DHT22;3822;48.784;9.174;2023-07-22T09:54:17;24.30;54.30
7562;DHT22;3822;48.784;9.174;2023-07-22T09:56:46;24.30;54.60
7562;DHT22;3822;48.784;9.174;2023-07-22T09:59:13;24.30;53.80
7562;DHT22;3822;48.784;9.174;2023-07-22T10:01:39;24.30;54.40
7562;DHT22;3822;48.784;9.174;2023-07-22T10:04:14;24.30;53.70
7562;DHT22;3822;48.784;9.174;2023-07-22T10:06:42;24.40;53.60
7562;DHT22;3822;48.784;9.174;2023-07-22T10:09:11;24.50;53.30
7562;DHT22;3822;48.784;9.174;2023-07-22T10:11:40;24.50;52.40
7562;DHT22;3822;48.784;9.174;2023-07-22T10:14:09;24.60;52.40
7562;DHT22;3822;48.784;9.174;2023-07-22T10:16:38;24.60;52.20
7562;DHT22;3822;48.784;9.174;2023-07-22T10:19:04;24.70;51.70
7562;DHT22;3822;48.784;9.174;2023-07-22T10:21:31;24.70;51.70
7562;DHT22;3822;48.784;9.174;2023-07-22T10:23:58;24.80;51.70
7562;DHT22;3822;48.784;9.174;2023-07-22T10:26:26;24.80;51.40
7562;DHT22;3822;48.784;9.174;2023-07-22T10:28:54;24.80;51.50
7562;DHT22;3822;48.784;9.174;2023-07-22T10:31:21;24.90;50.70
7562;DHT22;3822;48.784;9.174;2023-07-22T10:33:48;24.70;50.10
7562;DHT22;3822;48.784;9.174;2023-07-22T10:36:15;24.90;49.90
7562;DHT22;3822;48.784;9.174;2023-07-22T10:38:42;24.90;49.70
7562;DHT22;3822;48.784;9.174;2023-07-22T10:41:15;24.90;49.40
7562;DHT22;3822;48.784;9.174;2023-07-22T10:43:54;25.00;49.80
7562;DHT22;3822;48.784;9.174;2023-07-22T10:46:35;25.00;49.90
7562;DHT22;3822;48.784;9.174;2023-07-22T10:49:14;25.10;49.90
7562;DHT22;3822;48.784;9.174;2023-07-22T10:51:49;25.10;50.40
7562;DHT22;3822;48.784;9.174;2023-07-22T10:54:30;25.20;50.50
7562;DHT22;3822;48.784;9.174;2023-07-22T11:00:01;25.30;49.90
7562;DHT22;3822;48.784;9.174;2023-07-22T11:02:30;25.40;49.60
7562;DHT22;3822;48.784;9.174;2023-07-22T11:04:56;25.50;49.10
7562;DHT22;3822;48.784;9.174;2023-07-22T11:07:34;25.50;49.30
7562;DHT22;3822;48.784;9.174;2023-07-22T11:10:12;25.60;49.60
7562;DHT22;3822;48.784;9.174;2023-07-22T11:12:45;25.70;49.90
7562;DHT22;3822;48.784;9.174;2023-07-22T11:15:15;25.70;49.30
7562;DHT22;3822;48.784;9.174;2023-07-22T11:17:42;25.80;48.60
7562;DHT22;3822;48.784;9.174;2023-07-22T11:20:09;25.70;48.10
7562;DHT22;3822;48.784;9.174;2023-07-22T11:22:38;25.70;48.40
7562;DHT22;3822;48.784;9.174;2023-07-22T11:25:06;25.60;48.60
7562;DHT22;3822;48.784;9.174;2023-07-22T11:27:32;25.60;49.00
7562;DHT22;3822;48.784;9.174;2023-07-22T11:29:59;25.50;49.30
7562;DHT22;3822;48.784;9.174;2023-07-22T11:32:25;25.50;49.60
7562;DHT22;3822;48.784;9.174;2023-07-22T11:34:51;25.50;49.70
7562;DHT22;3822;48.784;9.174;2023-07-22T11:37:21;25.50;49.80
7562;DHT22;3822;48.784;9.174;2023-07-22T11:39:48;25.50;49.90
7562;DHT22;3822;48.784;9.174;2023-07-22T11:42:15;25.50;50.20
7562;DHT22;3822;48.784;9.174;2023-07-22T11:44:53;25.60;50.60
7562;DHT22;3822;48.784;9.174;2023-07-22T11:47:29;25.60;50.70
7562;DHT22;3822;48.784;9.174;2023-07-22T11:49:56;25.70;50.60
7562;DHT22;3822;48.784;9.174;2023-07-22T11:52:26;25.70;50.50
7562;DHT22;3822;48.784;9.174;2023-07-22T11:54:52;25.70;50.30
7562;DHT22;3822;48.784;9.174;2023-07-22T11:57:22;25.80;50.00
7562;DHT22;3822;48.784;9.174;2023-07-22T11:59:52;25.90;49.70
7562;DHT22;3822;48.784;9.174;2023-07-22T12:02:23;25.90;49.70
7562;DHT22;3822;48.784;9.174;2023-07-22T12:05:05;26.00;49.40
7562;DHT22;3822;48.784;9.174;2023-07-22T12:07:37;26.00;49.20
7562;DHT22;3822;48.784;9.174;2023-07-22T12:10:07;26.10;49.40
7562;DHT22;3822;48.784;9.174;2023-07-22T12:12:36;26.10;49.30
7562;DHT22;3822;48.784;9.174;2023-07-22T12:15:03;26.10;48.80
7562;DHT22;3822;48.784;9.174;2023-07-22T12:20:25;26.10;49.30
7562;DHT22;3822;48.784;9.174;2023-07-22T12:22:55;26.00;49.20
7562;DHT22;3822;48.784;9.174;2023-07-22T12:25:22;26.10;49.00
7562;DHT22;3822;48.784;9.174;2023-07-22T12:27:49;26.20;48.80
7562;DHT22;3822;48.784;9.174;2023-07-22T12:30:15;26.30;48.40
7562;DHT22;3822;48.784;9.174;2023-07-22T12:32:44;26.30;48.10
7562;DHT22;3822;48.784;9.174;2023-07-22T12:35:12;26.40;47.60
7562;DHT22;3822;48.784;9.174;2023-07-22T12:37:39;26.50;47.90
7562;DHT22;3822;48.784;9.174;2023-07-22T12:40:08;26.60;47.50
7562;DHT22;3822;48.784;9.174;2023-07-22T12:42:35;26.70;47.60
7562;DHT22;3822;48.784;9.174;2023-07-22T12:45:03;26.90;46.30
7562;DHT22;3822;48.784;9.174;2023-07-22T12:47:30;26.90;45.90
7562;DHT22;3822;48.784;9.174;2023-07-22T12:49:57;27.00;45.00
7562;DHT22;3822;48.784;9.174;2023-07-22T12:52:23;27.00;44.40
7562;DHT22;3822;48.784;9.174;2023-07-22T12:54:49;27.00;44.30
7562;DHT22;3822;48.784;9.174;2023-07-22T12:57:16;27.00;43.70
7562;DHT22;3822;48.784;9.174;2023-07-22T12:59:42;27.00;43.60
7562;DHT22;3822;48.784;9.174;2023-07-22T13:02:08;26.90;43.50
7562;DHT22;3822;48.784;9.174;2023-07-22T13:04:37;26.90;43.80
7562;DHT22;3822;48.784;9.174;2023-07-22T13:07:03;26.90;43.70
7562;DHT22;3822;48.784;9.174;2023-07-22T13:09:30;27.00;44.20
7562;DHT22;3822;48.784;9.174;2023-07-22T13:11:58;27.00;44.20
7562;DHT22;3822;48.784;9.174;2023-07-22T13:14:25;27.10;44.30
7562;DHT22;3822;48.784;9.174;2023-07-22T13:16:51;27.20;44.10
7562;DHT22;3822;48.784;9.174;2023-07-22T13:19:17;27.20;43.80
7562;DHT22;3822;48.784;9.174;2023-07-22T13:21:43;27.30;43.60
7562;DHT22;3822;48.784;9.174;2023-07-22T13:24:10;27.40;43.20
7562;DHT22;3822;48.784;9.174;2023-07-22T13:26:36;27.50;42.90
7562;DHT22;3822;48.784;9.174;2023-07-22T13:29:04;27.50;42.50
7562;DHT22;3822;48.784;9.174;2023-07-22T13:31:36;27.60;42.60
7562;DHT22;3822;48.784;9.174;2023-07-22T13:34:05;27.70;42.20
7562;DHT22;3822;48.784;9.174;2023-07-22T13:36:31;27.80;43.10
7562;DHT22;3822;48.784;9.174;2023-07-22T13:38:58;27.80;42.20
7562;DHT22;3822;48.784;9.174;2023-07-22T13:41:24;27.80;41.70
7562;DHT22;3822;48.784;9.174;2023-07-22T13:43:50;27.80;41.70
7562;DHT22;3822;48.784;9.174;2023-07-22T13:46:17;27.90;42.30
7562;DHT22;3822;48.784;9.174;2023-07-22T13:48:43;27.90;42.00
7562;DHT22;3822;48.784;9.174;2023-07-22T13:51:09;27.90;42.00
7562;DHT22;3822;48.784;9.174;2023-07-22T13:53:35;27.90;42.20
7562;DHT22;3822;48.784;9.174;2023-07-22T13:56:04;27.90;43.10
7562;DHT22;3822;48.784;9.174;2023-07-22T13:58:33;27.80;41.90
7562;DHT22;3822;48.784;9.174;2023-07-22T14:01:02;27.80;42.00
7562;DHT22;3822;48.784;9.174;2023-07-22T14:03:30;27.80;41.90
7562;DHT22;3822;48.784;9.174;2023-07-22T14:05:56;27.90;41.90
7562;DHT22;3822;48.784;9.174;2023-07-22T14:08:24;27.90;42.10
7562;DHT22;3822;48.784;9.174;2023-07-22T14:10:55;27.90;41.70
7562;DHT22;3822;48.784;9.174;2023-07-22T14:13:21;27.90;41.70
7562;DHT22;3822;48.784;9.174;2023-07-22T14:15:47;27.90;42.00
7562;DHT22;3822;48.784;9.174;2023-07-22T14:18:13;27.90;42.00
7562;DHT22;3822;48.784;9.174;2023-07-22T14:20:43;27.90;41.90
7562;DHT22;3822;48.784;9.174;2023-07-22T14:23:09;27.90;42.00
7562;DHT22;3822;48.784;9.174;2023-07-22T14:25:38;28.00;41.60
7562;DHT22;3822;48.784;9.174;2023-07-22T14:28:04;27.90;41.20
7562;DHT22;3822;48.784;9.174;2023-07-22T14:30:31;28.00;41.40
7562;DHT22;3822;48.784;9.174;2023-07-22T14:32:58;28.00;41.10
7562;DHT22;3822;48.784;9.174;2023-07-22T14:35:27;28.10;41.40
7562;DHT22;3822;48.784;9.174;2023-07-22T14:37:53;28.10;41.20
7562;DHT22;3822;48.784;9.174;2023-07-22T14:40:19;28.10;41.40
7562;DHT22;3822;48.784;9.174;2023-07-22T14:42:46;28.20;41.60
7562;DHT22;3822;48.784;9.174;2023-07-22T14:45:12;28.20;41.80
7562;DHT22;3822;48.784;9.174;2023-07-22T14:47:38;28.30;41.80
7562;DHT22;3822;48.784;9.174;2023-07-22T14:50:05;28.30;41.70
7562;DHT22;3822;48.784;9.174;2023-07-22T14:52:32;28.40;41.70
7562;DHT22;3822;48.784;9.174;2023-07-22T14:54:58;28.50;41.20
7562;DHT22;3822;48.784;9.174;2023-07-22T14:57:25;28.60;40.40
7562;DHT22;3822;48.784;9.174;2023-07-22T14:59:55;28.60;40.50
7562;DHT22;3822;48.784;9.174;2023-07-22T15:02:21;28.60;40.10
7562;DHT22;3822;48.784;9.174;2023-07-22T15:04:48;28.60;40.20
7562;DHT22;3822;48.784;9.174;2023-07-22T15:07:14;28.60;40.50
7562;DHT22;3822;48.784;9.174;2023-07-22T15:09:40;28.60;39.70
7562;DHT22;3822;48.784;9.174;2023-07-22T15:12:07;28.60;39.90
7562;DHT22;3822;48.784;9.174;2023-07-22T15:14:35;28.60;40.00
7562;DHT22;3822;48.784;9.174;2023-07-22T15:17:02;28.50;39.30
7562;DHT22;3822;48.784;9.174;2023-07-22T15:19:31;28.50;39.40
7562;DHT22;3822;48.784;9.174;2023-07-22T15:21:57;28.40;39.50
7562;DHT22;3822;48.784;9.174;2023-07-22T15:24:26;28.30;39.60
7562;DHT22;3822;48.784;9.174;2023-07-22T15:26:52;28.30;39.90
7562;DHT22;3822;48.784;9.174;2023-07-22T15:29:18;28.20;39.80
7562;DHT22;3822;48.784;9.174;2023-07-22T15:31:45;28.20;40.10
7562;DHT22;3822;48.784;9.174;2023-07-22T15:34:11;28.20;40.20
7562;DHT22;3822;48.784;9.174;2023-07-22T15:36:37;28.10;40.20
7562;DHT22;3822;48.784;9.174;2023-07-22T15:39:03;28.10;40.20
7562;DHT22;3822;48.784;9.174;2023-07-22T15:41:30;28.10;40.40
7562;DHT22;3822;48.784;9.174;2023-07-22T15:43:56;28.10;40.60
7562;DHT22;3822;48.784;9.174;2023-07-22T15:46:22;28.10;40.60
7562;DHT22;3822;48.784;9.174;2023-07-22T15:48:49;28.10;40.70
7562;DHT22;3822;48.784;9.174;2023-07-22T15:51:15;28.10;40.90
7562;DHT22;3822;48.784;9.174;2023-07-22T15:53:42;28.10;41.10
7562;DHT22;3822;48.784;9.174;2023-07-22T15:56:08;28.10;41.20
7562;DHT22;3822;48.784;9.174;2023-07-22T15:58:34;28.10;41.40
7562;DHT22;3822;48.784;9.174;2023-07-22T16:01:00;28.10;41.40
7562;DHT22;3822;48.784;9.174;2023-07-22T16:03:29;28.00;41.50
7562;DHT22;3822;48.784;9.174;2023-07-22T16:05:55;28.00;41.70
7562;DHT22;3822;48.784;9.174;2023-07-22T16:08:21;28.10;42.00
7562;DHT22;3822;48.784;9.174;2023-07-22T16:10:48;28.00;42.00
7562;DHT22;3822;48.784;9.174;2023-07-22T16:13:14;28.10;42.20